sensor_id;sensor_type;location;lat;lon;timestamp;pressure;altitude;pressure_sealevel;temperature;humidity
82887;BME280;72660;51.258;-2.200;2024-02-28T00:02:15;101223.05;;;11.14;52.84
82887;BME280;72660;51.258;-2.200;2024-02-28T00:04:40;101227.28;;;11.17;52.87
82887;BME280;72660;51.258;-2.200;2024-02-28T00:07:05;101234.90;;;11.01;53.27
82887;BME280;72660;51.258;-2.200;2024-02-28T00:09:30;101236.40;;;11.20;52.27
82887;BME280;72660;51.258;-2.200;2024-02-28T00:11:56;101247.52;;;11.21;52.57
82887;BME280;72660;51.258;-2.200;2024-02-28T00:14:21;101248.04;;;11.27;53.21
82887;BME280;72660;51.258;-2.200;2024-02-28T00:16:47;101248.44;;;10.68;53.55
82887;BME280;72660;51.258;-2.200;2024-02-28T00:19:12;101245.16;;;11.06;53.30
82887;BME280;72660;51.258;-2.200;2024-02-28T00:21:37;101235.36;;;11.27;52.64
82887;BME280;72660;51.258;-2.200;2024-02-28T00:24:03;101236.55;;;11.11;53.01
82887;BME280;72660;51.258;-2.200;2024-02-28T00:26:27;101233.41;;;11.25;53.10
82887;BME280;72660;51.258;-2.200;2024-02-28T00:28:53;101230.84;;;10.88;54.06
82887;BME280;72660;51.258;-2.200;2024-02-28T00:31:18;101229.07;;;10.75;53.65
82887;BME280;72660;51.258;-2.200;2024-02-28T00:33:44;101229.24;;;10.66;54.04
82887;BME280;72660;51.258;-2.200;2024-02-28T00:36:09;101221.77;;;11.09;53.50
82887;BME280;72660;51.258;-2.200;2024-02-28T00:38:35;101220.94;;;10.74;53.93
82887;BME280;72660;51.258;-2.200;2024-02-28T00:41:00;101220.17;;;10.76;53.96
82887;BME280;72660;51.258;-2.200;2024-02-28T00:43:25;101222.19;;;10.73;53.43
82887;BME280;72660;51.258;-2.200;2024-02-28T00:45:51;101224.31;;;10.87;53.65
82887;BME280;72660;51.258;-2.200;2024-02-28T00:48:16;101229.92;;;10.75;54.03
82887;BME280;72660;51.258;-2.200;2024-02-28T00:50:42;101240.66;;;10.81;53.50
82887;BME280;72660;51.258;-2.200;2024-02-28T00:53:07;101243.17;;;11.15;53.15
82887;BME280;72660;51.258;-2.200;2024-02-28T00:55:32;101239.65;;;10.82;53.42
82887;BME280;72660;51.258;-2.200;2024-02-28T00:57:58;101239.14;;;10.98;53.03
82887;BME280;72660;51.258;-2.200;2024-02-28T01:00:23;101237.23;;;11.10;52.94
82887;BME280;72660;51.258;-2.200;2024-02-28T01:02:48;101234.43;;;11.23;53.24
82887;BME280;72660;51.258;-2.200;2024-02-28T01:05:14;101233.38;;;10.86;53.65
82887;BME280;72660;51.258;-2.200;2024-02-28T01:07:39;101229.70;;;10.96;53.67
82887;BME280;72660;51.258;-2.200;2024-02-28T01:10:05;101227.09;;;11.16;53.74
82887;BME280;72660;51.258;-2.200;2024-02-28T01:12:29;101229.06;;;10.91;53.92
82887;BME280;72660;51.258;-2.200;2024-02-28T01:14:55;101226.77;;;10.94;53.96
82887;BME280;72660;51.258;-2.200;2024-02-28T01:17:20;101226.17;;;10.90;53.55
82887;BME280;72660;51.258;-2.200;2024-02-28T01:19:45;101226.88;;;11.44;52.93
82887;BME280;72660;51.258;-2.200;2024-02-28T01:22:11;101240.94;;;11.10;53.52
82887;BME280;72660;51.258;-2.200;2024-02-28T01:24:36;101243.06;;;11.06;53.78
82887;BME280;72660;51.258;-2.200;2024-02-28T01:27:02;101240.59;;;10.95;53.99
82887;BME280;72660;51.258;-2.200;2024-02-28T01:29:27;101240.10;;;11.17;54.17
82887;BME280;72660;51.258;-2.200;2024-02-28T01:31:52;101233.76;;;11.22;53.37
82887;BME280;72660;51.258;-2.200;2024-02-28T01:34:17;101228.61;;;11.30;53.82
82887;BME280;72660;51.258;-2.200;2024-02-28T01:36:42;101223.68;;;11.51;53.45
82887;BME280;72660;51.258;-2.200;2024-02-28T01:39:08;101229.32;;;11.24;53.81
82887;BME280;72660;51.258;-2.200;2024-02-28T01:41:33;101222.18;;;11.20;53.43
82887;BME280;72660;51.258;-2.200;2024-02-28T01:43:58;101228.17;;;11.34;53.49
82887;BME280;72660;51.258;-2.200;2024-02-28T01:46:25;101239.32;;;10.81;53.46
82887;BME280;72660;51.258;-2.200;2024-02-28T01:48:49;101240.85;;;11.18;53.67
82887;BME280;72660;51.258;-2.200;2024-02-28T01:51:14;101237.34;;;10.75;54.28
82887;BME280;72660;51.258;-2.200;2024-02-28T01:53:39;101233.94;;;11.39;53.68
82887;BME280;72660;51.258;-2.200;2024-02-28T01:56:05;101229.53;;;10.96;54.04
82887;BME280;72660;51.258;-2.200;2024-02-28T01:58:30;101223.49;;;11.04;53.81
82887;BME280;72660;51.258;-2.200;2024-02-28T02:00:56;101218.81;;;10.85;53.69
82887;BME280;72660;51.258;-2.200;2024-02-28T02:03:21;101221.91;;;11.12;53.65
82887;BME280;72660;51.258;-2.200;2024-02-28T02:05:46;101219.38;;;11.03;53.27
82887;BME280;72660;51.258;-2.200;2024-02-28T02:08:12;101224.39;;;11.41;53.43
82887;BME280;72660;51.258;-2.200;2024-02-28T02:10:37;101234.33;;;10.82;54.08
82887;BME280;72660;51.258;-2.200;2024-02-28T02:13:05;101241.94;;;11.32;53.57
82887;BME280;72660;51.258;-2.200;2024-02-28T02:15:28;101244.54;;;11.26;53.10
82887;BME280;72660;51.258;-2.200;2024-02-28T02:17:54;101245.77;;;11.09;53.41
82887;BME280;72660;51.258;-2.200;2024-02-28T02:20:21;101239.15;;;11.25;53.33
82887;BME280;72660;51.258;-2.200;2024-02-28T02:22:45;101235.39;;;11.16;53.10
82887;BME280;72660;51.258;-2.200;2024-02-28T02:25:10;101231.79;;;11.26;53.26
82887;BME280;72660;51.258;-2.200;2024-02-28T02:27:36;101233.45;;;10.86;53.75
82887;BME280;72660;51.258;-2.200;2024-02-28T02:30:02;101233.49;;;11.15;52.89
82887;BME280;72660;51.258;-2.200;2024-02-28T02:32:26;101233.21;;;11.23;53.03
82887;BME280;72660;51.258;-2.200;2024-02-28T02:34:52;101233.22;;;11.14;52.71
82887;BME280;72660;51.258;-2.200;2024-02-28T02:37:18;101235.46;;;10.64;53.18
82887;BME280;72660;51.258;-2.200;2024-02-28T02:39:43;101233.04;;;11.06;52.32
82887;BME280;72660;51.258;-2.200;2024-02-28T02:42:09;101239.82;;;11.50;52.28
82887;BME280;72660;51.258;-2.200;2024-02-28T02:44:34;101234.88;;;10.95;53.00
82887;BME280;72660;51.258;-2.200;2024-02-28T02:46:59;101238.00;;;11.38;52.64
82887;BME280;72660;51.258;-2.200;2024-02-28T02:49:25;101238.62;;;10.96;53.00
82887;BME280;72660;51.258;-2.200;2024-02-28T02:51:49;101242.78;;;10.95;52.71
82887;BME280;72660;51.258;-2.200;2024-02-28T02:54:15;101239.63;;;11.33;52.30
82887;BME280;72660;51.258;-2.200;2024-02-28T02:56:41;101240.37;;;10.93;52.73
82887;BME280;72660;51.258;-2.200;2024-02-28T02:59:06;101235.30;;;11.32;52.46
82887;BME280;72660;51.258;-2.200;2024-02-28T03:01:31;101228.38;;;11.38;52.27
82887;BME280;72660;51.258;-2.200;2024-02-28T03:03:56;101217.98;;;11.29;52.38
82887;BME280;72660;51.258;-2.200;2024-02-28T03:06:22;101221.82;;;11.43;52.69
82887;BME280;72660;51.258;-2.200;2024-02-28T03:08:48;101214.73;;;11.09;52.26
82887;BME280;72660;51.258;-2.200;2024-02-28T03:11:13;101213.77;;;11.08;52.61
82887;BME280;72660;51.258;-2.200;2024-02-28T03:13:38;101218.56;;;11.03;52.78
82887;BME280;72660;51.258;-2.200;2024-02-28T03:16:05;101223.02;;;11.19;52.52
82887;BME280;72660;51.258;-2.200;2024-02-28T03:18:30;101229.30;;;11.09;52.60
82887;BME280;72660;51.258;-2.200;2024-02-28T03:20:55;101227.88;;;10.74;52.63
82887;BME280;72660;51.258;-2.200;2024-02-28T03:23:20;101230.33;;;10.96;52.63
82887;BME280;72660;51.258;-2.200;2024-02-28T03:25:46;101216.29;;;11.01;52.13
82887;BME280;72660;51.258;-2.200;2024-02-28T03:28:11;101216.51;;;11.04;51.88
82887;BME280;72660;51.258;-2.200;2024-02-28T03:30:36;101218.64;;;10.89;52.28
82887;BME280;72660;51.258;-2.200;2024-02-28T03:33:01;101212.33;;;10.62;52.62
82887;BME280;72660;51.258;-2.200;2024-02-28T03:35:27;101205.87;;;10.77;53.16
82887;BME280;72660;51.258;-2.200;2024-02-28T03:37:53;101208.86;;;10.65;53.29
82887;BME280;72660;51.258;-2.200;2024-02-28T03:40:18;101215.56;;;10.38;53.20
82887;BME280;72660;51.258;-2.200;2024-02-28T03:42:43;101206.06;;;10.35;53.51
82887;BME280;72660;51.258;-2.200;2024-02-28T03:45:08;101201.12;;;10.46;53.91
82887;BME280;72660;51.258;-2.200;2024-02-28T03:47:34;101196.41;;;9.91;54.68
82887;BME280;72660;51.258;-2.200;2024-02-28T03:49:59;101195.70;;;10.25;54.50
82887;BME280;72660;51.258;-2.200;2024-02-28T03:52:24;101189.91;;;10.43;53.59
82887;BME280;72660;51.258;-2.200;2024-02-28T03:54:49;101184.97;;;10.59;53.74
82887;BME280;72660;51.258;-2.200;2024-02-28T03:57:15;101182.75;;;10.61;53.27
82887;BME280;72660;51.258;-2.200;2024-02-28T03:59:40;101187.61;;;10.41;53.67
82887;BME280;72660;51.258;-2.200;2024-02-28T04:02:06;101177.60;;;10.55;53.37
82887;BME280;72660;51.258;-2.200;2024-02-28T04:04:31;101179.58;;;10.46;53.66
82887;BME280;72660;51.258;-2.200;2024-02-28T04:06:56;101185.15;;;10.87;53.18
82887;BME280;72660;51.258;-2.200;2024-02-28T04:09:21;101193.91;;;10.35;53.91
82887;BME280;72660;51.258;-2.200;2024-02-28T04:11:47;101196.38;;;10.22;53.79
82887;BME280;72660;51.258;-2.200;2024-02-28T04:14:13;101194.14;;;10.97;53.08
82887;BME280;72660;51.258;-2.200;2024-02-28T04:16:41;101191.58;;;10.50;53.63
82887;BME280;72660;51.258;-2.200;2024-02-28T04:19:03;101190.48;;;9.98;54.38
82887;BME280;72660;51.258;-2.200;2024-02-28T04:21:29;101187.36;;;10.59;53.84
82887;BME280;72660;51.258;-2.200;2024-02-28T04:23:54;101182.23;;;10.13;54.33
82887;BME280;72660;51.258;-2.200;2024-02-28T04:26:19;101180.61;;;10.19;54.23
82887;BME280;72660;51.258;-2.200;2024-02-28T04:28:45;101180.51;;;10.28;54.04
82887;BME280;72660;51.258;-2.200;2024-02-28T04:31:10;101182.27;;;10.81;53.07
82887;BME280;72660;51.258;-2.200;2024-02-28T04:33:35;101179.46;;;10.57;53.82
82887;BME280;72660;51.258;-2.200;2024-02-28T04:36:00;101176.82;;;10.44;53.51
82887;BME280;72660;51.258;-2.200;2024-02-28T04:38:25;101170.26;;;10.13;53.68
82887;BME280;72660;51.258;-2.200;2024-02-28T04:40:50;101168.60;;;10.55;53.26
82887;BME280;72660;51.258;-2.200;2024-02-28T04:43:15;101159.89;;;10.31;53.82
82887;BME280;72660;51.258;-2.200;2024-02-28T04:45:41;101155.20;;;10.31;53.78
82887;BME280;72660;51.258;-2.200;2024-02-28T04:48:07;101156.84;;;10.61;52.83
82887;BME280;72660;51.258;-2.200;2024-02-28T04:50:31;101155.47;;;10.38;53.58
82887;BME280;72660;51.258;-2.200;2024-02-28T04:52:56;101159.17;;;10.21;53.95
82887;BME280;72660;51.258;-2.200;2024-02-28T04:55:22;101157.87;;;10.17;54.01
82887;BME280;72660;51.258;-2.200;2024-02-28T04:57:47;101159.50;;;10.71;53.28
82887;BME280;72660;51.258;-2.200;2024-02-28T05:00:12;101161.91;;;10.52;53.81
82887;BME280;72660;51.258;-2.200;2024-02-28T05:02:37;101160.71;;;10.58;53.69
82887;BME280;72660;51.258;-2.200;2024-02-28T05:05:02;101164.81;;;10.75;53.75
82887;BME280;72660;51.258;-2.200;2024-02-28T05:07:27;101166.13;;;10.33;53.29
82887;BME280;72660;51.258;-2.200;2024-02-28T05:09:52;101157.51;;;10.20;53.94
82887;BME280;72660;51.258;-2.200;2024-02-28T05:12:17;101152.18;;;10.62;53.45
82887;BME280;72660;51.258;-2.200;2024-02-28T05:14:42;101144.53;;;10.46;53.45
82887;BME280;72660;51.258;-2.200;2024-02-28T05:17:08;101147.41;;;10.11;53.96
82887;BME280;72660;51.258;-2.200;2024-02-28T05:19:34;101149.52;;;10.48;53.04
82887;BME280;72660;51.258;-2.200;2024-02-28T05:21:59;101141.68;;;10.96;52.37
82887;BME280;72660;51.258;-2.200;2024-02-28T05:24:24;101149.29;;;10.44;52.57
82887;BME280;72660;51.258;-2.200;2024-02-28T05:26:49;101143.01;;;10.46;52.45
82887;BME280;72660;51.258;-2.200;2024-02-28T05:29:15;101141.29;;;10.20;52.85
82887;BME280;72660;51.258;-2.200;2024-02-28T05:31:40;101146.27;;;10.31;52.73
82887;BME280;72660;51.258;-2.200;2024-02-28T05:34:05;101149.48;;;10.01;53.08
82887;BME280;72660;51.258;-2.200;2024-02-28T05:36:30;101146.81;;;9.93;53.39
82887;BME280;72660;51.258;-2.200;2024-02-28T05:38:57;101147.90;;;10.22;53.45
82887;BME280;72660;51.258;-2.200;2024-02-28T05:41:20;101150.36;;;10.08;53.33
82887;BME280;72660;51.258;-2.200;2024-02-28T05:43:46;101159.41;;;10.04;53.45
82887;BME280;72660;51.258;-2.200;2024-02-28T05:46:11;101154.57;;;10.03;52.63
82887;BME280;72660;51.258;-2.200;2024-02-28T05:48:36;101151.79;;;10.32;52.82
82887;BME280;72660;51.258;-2.200;2024-02-28T05:51:02;101149.68;;;9.88;53.12
82887;BME280;72660;51.258;-2.200;2024-02-28T05:53:27;101157.89;;;9.62;53.42
82887;BME280;72660;51.258;-2.200;2024-02-28T05:55:52;101155.47;;;9.68;53.36
82887;BME280;72660;51.258;-2.200;2024-02-28T05:58:18;101160.58;;;9.72;53.55
82887;BME280;72660;51.258;-2.200;2024-02-28T06:00:43;101158.08;;;10.06;52.88
82887;BME280;72660;51.258;-2.200;2024-02-28T06:03:08;101156.07;;;10.02;52.89
82887;BME280;72660;51.258;-2.200;2024-02-28T06:05:34;101152.72;;;9.54;53.34
82887;BME280;72660;51.258;-2.200;2024-02-28T06:07:59;101143.12;;;9.63;53.58
82887;BME280;72660;51.258;-2.200;2024-02-28T06:10:24;101139.80;;;9.61;53.47
82887;BME280;72660;51.258;-2.200;2024-02-28T06:12:50;101136.53;;;9.12;54.49
82887;BME280;72660;51.258;-2.200;2024-02-28T06:15:15;101140.57;;;9.76;53.21
82887;BME280;72660;51.258;-2.200;2024-02-28T06:17:40;101138.84;;;9.33;54.15
82887;BME280;72660;51.258;-2.200;2024-02-28T06:20:07;101134.09;;;9.69;53.34
82887;BME280;72660;51.258;-2.200;2024-02-28T06:22:31;101127.81;;;9.74;53.31
82887;BME280;72660;51.258;-2.200;2024-02-28T06:24:56;101118.91;;;9.53;53.46
82887;BME280;72660;51.258;-2.200;2024-02-28T06:27:21;101110.60;;;8.94;54.65
82887;BME280;72660;51.258;-2.200;2024-02-28T06:29:47;101108.76;;;9.26;54.13
82887;BME280;72660;51.258;-2.200;2024-02-28T06:32:12;101116.29;;;9.83;53.84
82887;BME280;72660;51.258;-2.200;2024-02-28T06:34:37;101113.87;;;9.43;53.67
82887;BME280;72660;51.258;-2.200;2024-02-28T06:37:03;101115.60;;;9.47;53.45
82887;BME280;72660;51.258;-2.200;2024-02-28T06:39:28;101122.37;;;9.13;53.61
82887;BME280;72660;51.258;-2.200;2024-02-28T06:41:53;101122.01;;;9.06;54.21
82887;BME280;72660;51.258;-2.200;2024-02-28T06:44:18;101113.94;;;9.42;53.43
82887;BME280;72660;51.258;-2.200;2024-02-28T06:46:44;101109.98;;;9.13;54.43
82887;BME280;72660;51.258;-2.200;2024-02-28T06:49:09;101106.95;;;9.07;54.07
82887;BME280;72660;51.258;-2.200;2024-02-28T06:51:34;101108.46;;;9.21;53.83
82887;BME280;72660;51.258;-2.200;2024-02-28T06:53:59;101107.56;;;9.30;53.75
82887;BME280;72660;51.258;-2.200;2024-02-28T06:56:24;101103.82;;;9.13;54.01
82887;BME280;72660;51.258;-2.200;2024-02-28T06:58:50;101111.45;;;9.07;53.61
82887;BME280;72660;51.258;-2.200;2024-02-28T07:01:15;101111.53;;;9.41;53.08
82887;BME280;72660;51.258;-2.200;2024-02-28T07:03:40;101116.33;;;8.99;53.99
82887;BME280;72660;51.258;-2.200;2024-02-28T07:06:06;101106.87;;;8.87;54.23
82887;BME280;72660;51.258;-2.200;2024-02-28T07:08:32;101104.44;;;9.08;53.69
82887;BME280;72660;51.258;-2.200;2024-02-28T07:10:56;101097.70;;;9.31;53.35
82887;BME280;72660;51.258;-2.200;2024-02-28T07:13:22;101100.89;;;9.11;53.21
82887;BME280;72660;51.258;-2.200;2024-02-28T07:15:47;101101.28;;;9.53;52.72
82887;BME280;72660;51.258;-2.200;2024-02-28T07:18:12;101100.32;;;9.68;52.55
82887;BME280;72660;51.258;-2.200;2024-02-28T07:20:37;101105.79;;;9.73;52.35
82887;BME280;72660;51.258;-2.200;2024-02-28T07:23:03;101110.45;;;9.84;52.31
82887;BME280;72660;51.258;-2.200;2024-02-28T07:25:28;101112.23;;;9.67;52.39
82887;BME280;72660;51.258;-2.200;2024-02-28T07:27:53;101114.97;;;9.85;52.26
82887;BME280;72660;51.258;-2.200;2024-02-28T07:30:18;101116.16;;;9.85;52.15
82887;BME280;72660;51.258;-2.200;2024-02-28T07:32:44;101124.39;;;9.94;52.03
82887;BME280;72660;51.258;-2.200;2024-02-28T07:35:11;101127.81;;;9.58;51.69
82887;BME280;72660;51.258;-2.200;2024-02-28T07:37:35;101117.13;;;9.73;51.75
82887;BME280;72660;51.258;-2.200;2024-02-28T07:40:00;101117.95;;;10.24;51.51
82887;BME280;72660;51.258;-2.200;2024-02-28T07:42:26;101118.20;;;10.31;51.54
82887;BME280;72660;51.258;-2.200;2024-02-28T07:44:52;101117.71;;;10.24;51.08
82887;BME280;72660;51.258;-2.200;2024-02-28T07:47:16;101115.45;;;9.83;51.41
82887;BME280;72660;51.258;-2.200;2024-02-28T07:49:43;101115.81;;;10.12;51.29
82887;BME280;72660;51.258;-2.200;2024-02-28T07:52:07;101120.24;;;10.04;51.42
82887;BME280;72660;51.258;-2.200;2024-02-28T07:54:32;101131.58;;;10.01;51.30
82887;BME280;72660;51.258;-2.200;2024-02-28T07:56:58;101140.30;;;9.97;51.44
82887;BME280;72660;51.258;-2.200;2024-02-28T07:59:23;101149.34;;;9.92;51.51
82887;BME280;72660;51.258;-2.200;2024-02-28T08:01:48;101149.29;;;9.72;52.37
82887;BME280;72660;51.258;-2.200;2024-02-28T08:04:13;101147.62;;;9.88;52.09
82887;BME280;72660;51.258;-2.200;2024-02-28T08:06:40;101151.87;;;9.78;52.23
82887;BME280;72660;51.258;-2.200;2024-02-28T08:09:03;101155.28;;;10.22;51.75
82887;BME280;72660;51.258;-2.200;2024-02-28T08:11:29;101160.83;;;10.29;51.08
82887;BME280;72660;51.258;-2.200;2024-02-28T08:13:54;101160.88;;;10.26;50.66
82887;BME280;72660;51.258;-2.200;2024-02-28T08:16:19;101160.76;;;10.04;51.14
82887;BME280;72660;51.258;-2.200;2024-02-28T08:18:45;101163.87;;;10.44;50.36
82887;BME280;72660;51.258;-2.200;2024-02-28T08:21:10;101168.58;;;10.18;50.93
82887;BME280;72660;51.258;-2.200;2024-02-28T08:23:35;101170.74;;;10.57;50.22
82887;BME280;72660;51.258;-2.200;2024-02-28T08:26:01;101170.88;;;10.58;50.00
82887;BME280;72660;51.258;-2.200;2024-02-28T08:28:26;101166.94;;;10.85;49.68
82887;BME280;72660;51.258;-2.200;2024-02-28T08:30:51;101166.17;;;11.10;49.20
82887;BME280;72660;51.258;-2.200;2024-02-28T08:33:16;101165.38;;;10.59;49.40
82887;BME280;72660;51.258;-2.200;2024-02-28T08:35:41;101168.96;;;10.92;49.10
82887;BME280;72660;51.258;-2.200;2024-02-28T08:38:06;101173.32;;;11.21;48.87
82887;BME280;72660;51.258;-2.200;2024-02-28T08:40:31;101164.65;;;11.22;48.71
82887;BME280;72660;51.258;-2.200;2024-02-28T08:42:57;101166.77;;;11.37;48.33
82887;BME280;72660;51.258;-2.200;2024-02-28T08:45:22;101175.16;;;11.41;48.07
82887;BME280;72660;51.258;-2.200;2024-02-28T08:47:47;101173.20;;;11.36;48.30
82887;BME280;72660;51.258;-2.200;2024-02-28T08:50:12;101167.27;;;11.80;48.00
82887;BME280;72660;51.258;-2.200;2024-02-28T08:52:37;101172.11;;;11.22;48.23
82887;BME280;72660;51.258;-2.200;2024-02-28T08:55:03;101171.20;;;11.52;47.94
82887;BME280;72660;51.258;-2.200;2024-02-28T08:57:28;101172.91;;;10.99;48.11
82887;BME280;72660;51.258;-2.200;2024-02-28T08:59:53;101169.07;;;11.47;47.68
82887;BME280;72660;51.258;-2.200;2024-02-28T09:02:18;101165.99;;;11.59;47.87
82887;BME280;72660;51.258;-2.200;2024-02-28T09:04:44;101168.15;;;11.45;47.71
82887;BME280;72660;51.258;-2.200;2024-02-28T09:07:10;101165.21;;;11.53;47.76
82887;BME280;72660;51.258;-2.200;2024-02-28T09:09:35;101165.80;;;11.96;47.26
82887;BME280;72660;51.258;-2.200;2024-02-28T09:12:00;101164.32;;;11.74;47.20
82887;BME280;72660;51.258;-2.200;2024-02-28T09:14:25;101161.76;;;11.72;47.39
82887;BME280;72660;51.258;-2.200;2024-02-28T09:16:50;101157.83;;;11.57;47.19
82887;BME280;72660;51.258;-2.200;2024-02-28T09:19:16;101157.55;;;11.60;46.77
82887;BME280;72660;51.258;-2.200;2024-02-28T09:21:41;101159.04;;;11.75;46.84
82887;BME280;72660;51.258;-2.200;2024-02-28T09:24:07;101160.59;;;11.78;46.61
82887;BME280;72660;51.258;-2.200;2024-02-28T09:26:32;101153.09;;;12.29;46.40
82887;BME280;72660;51.258;-2.200;2024-02-28T09:28:57;101149.93;;;12.14;46.39
82887;BME280;72660;51.258;-2.200;2024-02-28T09:31:23;101151.82;;;12.17;45.99
82887;BME280;72660;51.258;-2.200;2024-02-28T09:33:48;101148.97;;;12.35;45.42
82887;BME280;72660;51.258;-2.200;2024-02-28T09:36:13;101145.94;;;12.89;44.83
82887;BME280;72660;51.258;-2.200;2024-02-28T09:38:39;101137.50;;;13.00;44.54
82887;BME280;72660;51.258;-2.200;2024-02-28T09:41:04;101129.58;;;12.68;44.47
82887;BME280;72660;51.258;-2.200;2024-02-28T09:43:31;101128.82;;;12.71;44.81
82887;BME280;72660;51.258;-2.200;2024-02-28T09:45:59;101118.48;;;12.98;44.57
82887;BME280;72660;51.258;-2.200;2024-02-28T09:48:20;101120.97;;;13.04;44.55
82887;BME280;72660;51.258;-2.200;2024-02-28T09:50:46;101119.06;;;12.94;44.61
82887;BME280;72660;51.258;-2.200;2024-02-28T09:53:10;101118.49;;;13.09;44.77
82887;BME280;72660;51.258;-2.200;2024-02-28T09:55:36;101117.92;;;12.65;45.03
82887;BME280;72660;51.258;-2.200;2024-02-28T09:58:01;101116.13;;;12.88;45.00
82887;BME280;72660;51.258;-2.200;2024-02-28T10:00:28;101115.06;;;12.64;45.00
82887;BME280;72660;51.258;-2.200;2024-02-28T10:02:54;101115.26;;;12.65;45.30
82887;BME280;72660;51.258;-2.200;2024-02-28T10:05:18;101114.01;;;12.69;45.17
82887;BME280;72660;51.258;-2.200;2024-02-28T10:07:45;101114.62;;;13.31;44.59
82887;BME280;72660;51.258;-2.200;2024-02-28T10:10:10;101110.14;;;13.38;44.71
82887;BME280;72660;51.258;-2.200;2024-02-28T10:12:40;101107.80;;;12.62;45.03
82887;BME280;72660;51.258;-2.200;2024-02-28T10:15:01;101104.92;;;12.58;45.43
82887;BME280;72660;51.258;-2.200;2024-02-28T10:17:26;101100.20;;;12.85;45.27
82887;BME280;72660;51.258;-2.200;2024-02-28T10:19:52;101100.84;;;13.22;45.20
82887;BME280;72660;51.258;-2.200;2024-02-28T10:22:17;101100.85;;;12.82;45.58
82887;BME280;72660;51.258;-2.200;2024-02-28T10:24:42;101101.44;;;12.38;45.83
82887;BME280;72660;51.258;-2.200;2024-02-28T10:27:07;101093.93;;;12.13;46.56
82887;BME280;72660;51.258;-2.200;2024-02-28T10:29:33;101089.02;;;12.50;46.24
82887;BME280;72660;51.258;-2.200;2024-02-28T10:31:58;101088.52;;;12.80;46.23
82887;BME280;72660;51.258;-2.200;2024-02-28T10:34:24;101087.46;;;12.63;45.80
82887;BME280;72660;51.258;-2.200;2024-02-28T10:36:49;101082.43;;;12.64;46.02
82887;BME280;72660;51.258;-2.200;2024-02-28T10:39:14;101088.32;;;12.43;47.14
82887;BME280;72660;51.258;-2.200;2024-02-28T10:41:40;101085.08;;;12.83;46.57
82887;BME280;72660;51.258;-2.200;2024-02-28T10:44:05;101086.69;;;12.42;47.21
82887;BME280;72660;51.258;-2.200;2024-02-28T10:46:30;101078.44;;;13.03;47.32
82887;BME280;72660;51.258;-2.200;2024-02-28T10:48:56;101073.23;;;12.94;47.04
82887;BME280;72660;51.258;-2.200;2024-02-28T10:51:24;101073.31;;;12.44;47.82
82887;BME280;72660;51.258;-2.200;2024-02-28T10:53:47;101071.13;;;12.58;47.79
82887;BME280;72660;51.258;-2.200;2024-02-28T10:56:11;101061.63;;;11.86;49.05
82887;BME280;72660;51.258;-2.200;2024-02-28T10:58:38;101059.28;;;12.22;48.48
82887;BME280;72660;51.258;-2.200;2024-02-28T11:01:02;101060.58;;;11.95;48.52
82887;BME280;72660;51.258;-2.200;2024-02-28T11:03:27;101058.22;;;11.47;49.29
82887;BME280;72660;51.258;-2.200;2024-02-28T11:05:52;101062.48;;;11.74;49.35
82887;BME280;72660;51.258;-2.200;2024-02-28T11:08:22;101064.11;;;12.15;48.78
82887;BME280;72660;51.258;-2.200;2024-02-28T11:10:43;101065.22;;;12.70;48.20
82887;BME280;72660;51.258;-2.200;2024-02-28T11:13:08;101062.97;;;12.13;48.85
82887;BME280;72660;51.258;-2.200;2024-02-28T11:15:34;101060.35;;;12.88;48.02
82887;BME280;72660;51.258;-2.200;2024-02-28T11:18:08;101053.72;;;12.53;48.18
82887;BME280;72660;51.258;-2.200;2024-02-28T11:20:31;101051.17;;;12.40;48.42
82887;BME280;72660;51.258;-2.200;2024-02-28T11:22:56;101047.68;;;11.91;48.99
82887;BME280;72660;51.258;-2.200;2024-02-28T11:25:16;101042.86;;;11.73;49.67
82887;BME280;72660;51.258;-2.200;2024-02-28T11:27:47;101039.71;;;12.19;48.79
82887;BME280;72660;51.258;-2.200;2024-02-28T11:30:07;101033.55;;;12.51;49.04
82887;BME280;72660;51.258;-2.200;2024-02-28T11:32:32;101029.33;;;12.53;49.43
82887;BME280;72660;51.258;-2.200;2024-02-28T11:35:00;101022.11;;;12.51;49.33
82887;BME280;72660;51.258;-2.200;2024-02-28T11:37:23;101020.91;;;12.41;49.65
82887;BME280;72660;51.258;-2.200;2024-02-28T11:39:48;101015.69;;;12.08;50.20
82887;BME280;72660;51.258;-2.200;2024-02-28T11:42:15;101012.75;;;12.43;50.36
82887;BME280;72660;51.258;-2.200;2024-02-28T11:44:39;101005.45;;;12.79;49.80
82887;BME280;72660;51.258;-2.200;2024-02-28T11:47:04;100999.78;;;12.44;50.11
82887;BME280;72660;51.258;-2.200;2024-02-28T11:49:32;100995.13;;;12.48;50.47
82887;BME280;72660;51.258;-2.200;2024-02-28T11:51:55;100992.30;;;12.39;51.03
82887;BME280;72660;51.258;-2.200;2024-02-28T11:54:21;100990.52;;;12.10;52.22
82887;BME280;72660;51.258;-2.200;2024-02-28T11:56:46;100988.03;;;12.52;51.39
82887;BME280;72660;51.258;-2.200;2024-02-28T11:59:11;100986.07;;;12.81;51.00
82887;BME280;72660;51.258;-2.200;2024-02-28T12:01:38;100981.47;;;12.23;52.22
82887;BME280;72660;51.258;-2.200;2024-02-28T12:04:03;100976.69;;;12.68;51.35
82887;BME280;72660;51.258;-2.200;2024-02-28T12:06:28;100971.24;;;12.60;51.87
82887;BME280;72660;51.258;-2.200;2024-02-28T12:08:53;100966.89;;;12.45;52.05
82887;BME280;72660;51.258;-2.200;2024-02-28T12:11:19;100957.89;;;12.27;52.50
82887;BME280;72660;51.258;-2.200;2024-02-28T12:13:44;100955.30;;;12.35;52.68
82887;BME280;72660;51.258;-2.200;2024-02-28T12:16:09;100954.22;;;12.24;53.01
82887;BME280;72660;51.258;-2.200;2024-02-28T12:18:34;100940.18;;;11.58;53.50
82887;BME280;72660;51.258;-2.200;2024-02-28T12:20:59;100936.80;;;12.26;53.01
82887;BME280;72660;51.258;-2.200;2024-02-28T12:23:25;100941.20;;;12.30;52.86
82887;BME280;72660;51.258;-2.200;2024-02-28T12:25:50;100940.22;;;12.62;52.79
82887;BME280;72660;51.258;-2.200;2024-02-28T12:28:15;100937.06;;;12.14;52.82
82887;BME280;72660;51.258;-2.200;2024-02-28T12:30:41;100932.94;;;11.94;53.24